Time;durP1;ratioP1;P1;durP2;ratioP2;P2;SDS_P1;SDS_P2;PMS_P1;PMS_P2;Temp;Humidity;BMP_temperature;BMP_pressure;BME280_temperature;BME280_humidity;BME280_pressure;Samples;Min_cycle;Max_cycle;Signal;HPM_P1;HPM_P2
2022/03/01 00:00:54;;;;;;;20.15;13.77;;;2.60;94.40;;;;;;2101118;28;20032;-68
2022/03/01 00:01:55;;;;;;;25.65;14.95;;;2.60;94.50;;;;;;2100414;28;20132;-68
2022/03/01 00:02:55;;;;;;;19.05;14.15;;;2.60;94.90;;;;;;2106337;28;20115;-67
2022/03/01 00:03:56;;;;;;;20.35;14.98;;;2.60;95.10;;;;;;2101945;28;20046;-67
2022/03/01 00:04:56;;;;;;;18.48;13.70;;;2.60;95.20;;;;;;2102969;28;20059;-67
2022/03/01 00:05:57;;;;;;;19.88;14.10;;;2.60;95.20;;;;;;2103422;28;20465;-67
2022/03/01 00:06:57;;;;;;;17.10;13.35;;;2.60;95.20;;;;;;2103078;28;20412;-68
2022/03/01 00:07:58;;;;;;;17.95;12.88;;;2.60;95.10;;;;;;2102997;28;20021;-68
2022/03/01 00:08:59;;;;;;;17.98;12.18;;;2.60;95.00;;;;;;2104412;28;20024;-68
2022/03/01 00:09:59;;;;;;;15.02;11.80;;;2.60;95.00;;;;;;2100309;28;20028;-68
2022/03/01 00:11:00;;;;;;;15.82;12.48;;;2.60;94.90;;;;;;2105901;28;20020;-68
2022/03/01 00:12:00;;;;;;;18.13;13.15;;;2.60;94.80;;;;;;2101994;28;20264;-68
2022/03/01 00:13:01;;;;;;;22.13;14.43;;;2.60;94.90;;;;;;2102614;28;20085;-67
2022/03/01 00:14:02;;;;;;;20.70;14.30;;;2.50;95.00;;;;;;2104330;28;20036;-68
2022/03/01 00:15:03;;;;;;;21.27;14.05;;;2.60;95.30;;;;;;2104417;28;20035;-68
2022/03/01 00:16:04;;;;;;;17.98;13.02;;;2.50;95.30;;;;;;2103576;28;20034;-68
2022/03/01 00:17:05;;;;;;;19.63;13.23;;;2.50;95.40;;;;;;2100178;28;20039;-67
2022/03/01 00:18:05;;;;;;;19.65;15.07;;;2.50;95.50;;;;;;2099553;28;20043;-68
2022/03/01 00:19:06;;;;;;;21.50;14.20;;;2.50;95.90;;;;;;2103456;28;20039;-68
2022/03/01 00:20:07;;;;;;;19.35;14.07;;;2.50;96.20;;;;;;2102213;28;20019;-68
2022/03/01 00:21:07;;;;;;;22.33;15.57;;;2.50;96.60;;;;;;2102587;28;20058;-68
2022/03/01 00:22:08;;;;;;;22.50;14.65;;;2.50;96.60;;;;;;2103103;28;20055;-67
2022/03/01 00:23:08;;;;;;;21.63;13.95;;;2.50;96.70;;;;;;2103710;28;20121;-68
2022/03/01 00:24:09;;;;;;;22.85;15.20;;;2.50;96.70;;;;;;2104660;28;20036;-68
2022/03/01 00:25:09;;;;;;;20.95;14.77;;;2.50;97.20;;;;;;2107071;28;20481;-68
2022/03/01 00:26:10;;;;;;;21.75;14.30;;;2.40;97.20;;;;;;2103524;28;20080;-67
2022/03/01 00:27:11;;;;;;;19.05;13.15;;;2.40;97.10;;;;;;2103938;28;20058;-68
2022/03/01 00:28:11;;;;;;;19.83;14.55;;;2.40;97.00;;;;;;2103257;28;20038;-68
2022/03/01 00:29:12;;;;;;;20.83;14.13;;;2.40;97.00;;;;;;2104090;28;20062;-68
2022/03/01 00:30:12;;;;;;;19.48;13.45;;;2.40;97.40;;;;;;2106623;28;20082;-68
2022/03/01 00:31:14;;;;;;;22.13;15.25;;;2.40;97.30;;;;;;2105383;28;20414;-67
2022/03/01 00:32:15;;;;;;;20.85;14.25;;;2.40;97.40;;;;;;2103393;28;20046;-68
2022/03/01 00:33:15;;;;;;;21.05;14.65;;;2.40;97.70;;;;;;2106115;28;20035;-68
2022/03/01 00:34:16;;;;;;;21.48;14.48;;;2.40;97.90;;;;;;2102014;28;20115;-68
2022/03/01 00:35:17;;;;;;;23.15;14.30;;;2.40;98.10;;;;;;2101072;28;20033;-67
2022/03/01 00:36:17;;;;;;;19.63;14.63;;;2.40;97.90;;;;;;2107081;28;20047;-67
2022/03/01 00:37:18;;;;;;;19.55;13.82;;;2.40;97.80;;;;;;2104693;28;20034;-67
2022/03/01 00:38:19;;;;;;;20.50;14.80;;;2.40;98.10;;;;;;2104916;28;20035;-68
2022/03/01 00:39:19;;;;;;;20.23;13.90;;;2.40;98.20;;;;;;2104291;28;20030;-68
2022/03/01 00:40:20;;;;;;;22.45;14.85;;;2.30;98.20;;;;;;2105573;28;20032;-68
2022/03/01 00:41:21;;;;;;;18.95;13.30;;;2.30;98.20;;;;;;2106425;28;20416;-68
2022/03/01 00:42:21;;;;;;;22.83;15.55;;;2.30;98.30;;;;;;2101264;28;20107;-68
2022/03/01 00:43:22;;;;;;;21.33;13.27;;;2.30;98.40;;;;;;2112533;28;20852;-68
2022/03/01 00:44:23;;;;;;;23.10;14.95;;;2.30;98.40;;;;;;2106473;28;20037;-68
2022/03/01 00:45:23;;;;;;;20.63;14.23;;;2.30;98.70;;;;;;2103053;28;20020;-67
2022/03/01 00:46:26;;;;;;;20.15;14.50;;;2.30;98.70;;;;;;2103003;28;20028;-67
2022/03/01 00:47:27;;;;;;;22.77;14.30;;;2.30;98.80;;;;;;2102622;28;20040;-68
2022/03/01 00:48:27;;;;;;;22.77;13.88;;;2.30;98.70;;;;;;2099605;28;20032;-68
2022/03/01 00:49:28;;;;;;;19.35;12.82;;;2.30;98.60;;;;;;2107553;28;20032;-67
2022/03/01 00:50:28;;;;;;;18.25;13.18;;;2.30;98.40;;;;;;2100874;28;20042;-68
2022/03/01 00:51:29;;;;;;;22.95;15.05;;;2.30;98.40;;;;;;2106172;28;20078;-68
2022/03/01 00:52:30;;;;;;;22.20;14.98;;;2.30;98.80;;;;;;2104949;28;20468;-68
2022/03/01 00:53:30;;;;;;;21.30;14.65;;;2.30;99.30;;;;;;2105077;28;20020;-68
2022/03/01 00:54:31;;;;;;;21.98;14.95;;;2.30;99.40;;;;;;2106725;28;20024;-68
2022/03/01 00:55:32;;;;;;;21.02;15.18;;;2.20;99.70;;;;;;2103654;28;20349;-68
2022/03/01 00:56:34;;;;;;;20.75;14.15;;;2.20;99.90;;;;;;2105500;28;20092;-68
2022/03/01 00:57:34;;;;;;;21.35;14.57;;;2.20;99.90;;;;;;2105570;28;20132;-68
2022/03/01 00:58:35;;;;;;;23.77;16.23;;;2.20;99.90;;;;;;2100524;28;20158;-68
2022/03/01 00:59:35;;;;;;;19.90;13.45;;;2.20;99.90;;;;;;2105145;28;20016;-68
2022/03/01 01:00:36;;;;;;;19.90;14.20;;;2.20;99.90;;;;;;2103695;28;20047;-67
2022/03/01 01:01:37;;;;;;;17.92;13.57;;;2.20;99.90;;;;;;2103170;28;20056;-68
2022/03/01 01:02:37;;;;;;;18.58;13.43;;;2.20;99.90;;;;;;2105468;28;20380;-68
2022/03/01 01:03:38;;;;;;;18.58;13.68;;;2.20;99.90;;;;;;2101395;28;20024;-68
2022/03/01 01:04:38;;;;;;;20.15;13.07;;;2.20;99.90;;;;;;2103860;28;20028;-67
2022/03/01 01:05:39;;;;;;;19.38;12.80;;;2.20;99.90;;;;;;2102738;28;20069;-67
2022/03/01 01:06:39;;;;;;;18.67;13.15;;;2.20;99.90;;;;;;2100485;28;20816;-68
2022/03/01 01:07:40;;;;;;;20.95;14.27;;;2.20;99.90;;;;;;2106032;28;20111;-68
2022/03/01 01:08:41;;;;;;;19.15;13.98;;;2.20;99.90;;;;;;2103841;28;20507;-67
2022/03/01 01:09:41;;;;;;;18.40;12.82;;;2.20;99.90;;;;;;2103438;28;20028;-68
2022/03/01 01:10:42;;;;;;;18.65;13.77;;;2.10;99.90;;;;;;2100612;28;20019;-68
2022/03/01 01:11:43;;;;;;;19.20;13.45;;;2.10;99.90;;;;;;2102053;28;20427;-67
2022/03/01 01:12:44;;;;;;;21.90;13.57;;;2.10;99.90;;;;;;2106447;28;20101;-67
2022/03/01 01:13:45;;;;;;;22.13;13.43;;;2.10;99.90;;;;;;2101222;28;20055;-68
2022/03/01 01:14:46;;;;;;;18.90;12.88;;;2.10;99.90;;;;;;2104287;28;20016;-67
2022/03/01 01:15:46;;;;;;;16.80;12.10;;;2.10;99.90;;;;;;2106661;28;20051;-68
2022/03/01 01:16:47;;;;;;;18.50;13.07;;;2.10;99.90;;;;;;2104133;28;20027;-68
2022/03/01 01:17:48;;;;;;;16.13;12.20;;;2.00;99.90;;;;;;2103907;28;20082;-67
2022/03/01 01:18:48;;;;;;;19.55;12.60;;;2.10;99.90;;;;;;2104785;28;20529;-68
2022/03/01 01:19:49;;;;;;;19.00;13.10;;;2.00;99.90;;;;;;2101681;28;20089;-68
2022/03/01 01:20:49;;;;;;;17.55;12.45;;;2.00;99.90;;;;;;2105952;28;20024;-68
2022/03/01 01:23:09;;;;;;;20.98;12.63;;;2.00;99.90;;;;;;2102635;28;20035;-68
2022/03/01 01:24:10;;;;;;;16.67;12.23;;;2.00;99.90;;;;;;2106069;28;20028;-68
2022/03/01 01:25:17;;;;;;;19.05;12.43;;;2.00;99.90;;;;;;2105550;28;20111;-68
2022/03/01 01:26:18;;;;;;;15.85;11.32;;;2.10;99.90;;;;;;2103205;28;20050;-68
2022/03/01 01:27:19;;;;;;;15.68;11.05;;;2.00;99.90;;;;;;2102114;28;20028;-68
2022/03/01 01:28:19;;;;;;;18.77;11.68;;;2.00;99.90;;;;;;2103805;28;20494;-68
2022/03/01 01:29:20;;;;;;;16.80;11.43;;;2.00;99.90;;;;;;2101181;28;20089;-67
2022/03/01 01:30:26;;;;;;;16.75;11.02;;;2.00;99.90;;;;;;2106079;28;20206;-68
2022/03/01 01:31:26;;;;;;;16.35;12.10;;;2.00;99.90;;;;;;2101479;28;20472;-68
2022/03/01 01:32:27;;;;;;;16.55;11.70;;;2.00;99.90;;;;;;2103115;28;20384;-68
2022/03/01 01:33:27;;;;;;;15.40;10.65;;;2.00;99.90;;;;;;2105750;28;20047;-67
2022/03/01 01:34:28;;;;;;;15.48;11.15;;;2.00;99.90;;;;;;2101783;28;20103;-67
2022/03/01 01:35:31;;;;;;;16.73;12.27;;;1.90;99.90;;;;;;2101880;28;20032;-68
2022/03/01 01:36:31;;;;;;;15.02;11.75;;;1.90;99.90;;;;;;2104945;28;20073;-68
2022/03/01 01:37:32;;;;;;;17.00;12.13;;;1.90;99.90;;;;;;2104566;28;20499;-68
2022/03/01 01:38:33;;;;;;;15.57;11.13;;;1.90;99.90;;;;;;2103553;28;20024;-68
2022/03/01 01:39:33;;;;;;;15.02;10.98;;;1.90;99.90;;;;;;2104471;28;20035;-68
2022/03/01 01:40:34;;;;;;;14.43;11.00;;;2.00;99.90;;;;;;2104825;28;20448;-67
2022/03/01 01:41:35;;;;;;;14.07;10.25;;;1.90;99.90;;;;;;2105523;28;20361;-68
2022/03/01 01:42:36;;;;;;;13.13;10.73;;;1.90;99.90;;;;;;2102242;28;20051;-68
2022/03/01 01:43:36;;;;;;;12.57;9.77;;;1.90;99.90;;;;;;2107671;28;20016;-68
2022/03/01 01:44:37;;;;;;;14.40;11.00;;;1.90;99.90;;;;;;2102697;28;20162;-68
2022/03/01 01:45:37;;;;;;;14.85;10.95;;;1.90;99.90;;;;;;2099876;28;20127;-68
2022/03/01 01:46:38;;;;;;;16.85;11.77;;;1.90;99.90;;;;;;2105470;28;20471;-68
2022/03/01 01:47:39;;;;;;;15.68;11.23;;;1.90;99.90;;;;;;2101938;28;20034;-67
2022/03/01 01:48:40;;;;;;;16.85;11.63;;;1.90;99.90;;;;;;2102722;28;20490;-68
2022/03/01 01:49:40;;;;;;;12.68;10.70;;;1.90;99.90;;;;;;2105720;28;20442;-68
2022/03/01 01:50:41;;;;;;;15.48;10.95;;;1.90;99.90;;;;;;2102194;28;20021;-68
2022/03/01 01:51:41;;;;;;;16.35;11.95;;;1.90;99.90;;;;;;2106658;28;20020;-68
2022/03/01 01:52:46;;;;;;;12.88;10.52;;;1.90;99.90;;;;;;2104711;28;20460;-67
2022/03/01 01:53:47;;;;;;;14.45;10.85;;;1.90;99.90;;;;;;2104436;28;20778;-67
2022/03/01 01:54:48;;;;;;;13.45;10.45;;;1.90;99.90;;;;;;2107139;28;20110;-69
2022/03/01 01:55:48;;;;;;;12.75;11.07;;;1.80;99.90;;;;;;2106168;28;20027;-68
2022/03/01 01:56:49;;;;;;;14.52;10.90;;;1.90;99.90;;;;;;2106635;28;20426;-68
2022/03/01 01:57:49;;;;;;;14.48;11.40;;;1.90;99.90;;;;;;2104888;28;20023;-68
2022/03/01 01:58:50;;;;;;;12.98;10.88;;;1.90;99.90;;;;;;2104350;28;20073;-67
2022/03/01 01:59:53;;;;;;;16.88;10.93;;;1.80;99.90;;;;;;2105892;28;20658;-67
2022/03/01 02:00:53;;;;;;;14.57;10.88;;;1.90;99.90;;;;;;2103063;28;20047;-68
2022/03/01 02:01:54;;;;;;;14.13;10.57;;;1.90;99.90;;;;;;2100394;28;20028;-68
2022/03/01 02:02:55;;;;;;;15.75;11.23;;;1.90;99.90;;;;;;2106234;28;20388;-68
2022/03/01 02:03:56;;;;;;;12.93;10.80;;;1.90;99.90;;;;;;2104363;28;20024;-67
2022/03/01 02:04:56;;;;;;;17.05;11.23;;;1.90;99.90;;;;;;2095139;28;20056;-68
2022/03/01 02:05:57;;;;;;;13.45;11.00;;;1.90;99.90;;;;;;2101722;28;20039;-72
2022/03/01 02:06:57;;;;;;;13.63;10.25;;;1.90;99.90;;;;;;2099343;28;20024;-67
2022/03/01 02:07:58;;;;;;;11.98;10.18;;;1.90;99.90;;;;;;2105268;28;20034;-68
2022/03/01 02:08:58;;;;;;;13.05;10.05;;;2.00;99.90;;;;;;2103542;28;20031;-68
2022/03/01 02:09:59;;;;;;;15.60;11.65;;;2.00;99.90;;;;;;2102929;28;20021;-68
2022/03/01 02:11:00;;;;;;;15.32;10.50;;;2.00;99.90;;;;;;2105144;28;20035;-67
2022/03/01 02:12:02;;;;;;;12.82;9.77;;;2.00;99.90;;;;;;2103452;28;20117;-67
2022/03/01 02:13:03;;;;;;;15.30;10.80;;;2.10;99.90;;;;;;2102731;28;20024;-68
2022/03/01 02:14:03;;;;;;;13.70;10.18;;;2.10;99.90;;;;;;2103373;28;20111;-67
2022/03/01 02:15:04;;;;;;;13.10;10.25;;;2.10;99.90;;;;;;2102206;28;20111;-68
2022/03/01 02:16:04;;;;;;;14.00;10.43;;;2.20;99.90;;;;;;2102787;28;20028;-67
2022/03/01 02:17:08;;;;;;;11.63;9.02;;;2.20;99.90;;;;;;2104306;28;20030;-68
2022/03/01 02:18:08;;;;;;;15.63;9.98;;;2.20;99.90;;;;;;2103967;28;20035;-68
2022/03/01 02:19:13;;;;;;;11.93;9.60;;;2.30;99.90;;;;;;2104958;28;20047;-68
2022/03/01 02:20:23;;;;;;;12.95;9.73;;;2.40;99.90;;;;;;2106085;28;20482;-68
2022/03/01 02:21:23;;;;;;;11.73;9.05;;;2.40;99.90;;;;;;2102004;28;20572;-68
2022/03/01 02:22:32;;;;;;;13.00;9.43;;;2.40;99.90;;;;;;2102875;28;20808;-67
2022/03/01 02:23:33;;;;;;;14.98;9.45;;;2.60;99.90;;;;;;2103874;28;20071;-68
2022/03/01 02:24:34;;;;;;;13.90;9.65;;;2.70;99.90;;;;;;2102811;28;20039;-67
2022/03/01 02:25:35;;;;;;;13.30;9.70;;;2.70;99.90;;;;;;2104361;28;20016;-67
2022/03/01 02:26:36;;;;;;;13.10;9.05;;;2.80;99.60;;;;;;2104197;28;20020;-68
2022/03/01 02:27:37;;;;;;;12.23;9.00;;;2.90;99.10;;;;;;2102671;28;20024;-68
2022/03/01 02:28:37;;;;;;;12.43;9.27;;;2.90;98.30;;;;;;2106600;28;20060;-68
2022/03/01 02:29:38;;;;;;;12.55;9.00;;;3.00;98.00;;;;;;2102526;28;20465;-68
2022/03/01 02:30:38;;;;;;;11.05;8.75;;;3.10;97.50;;;;;;2103852;28;20072;-67
2022/03/01 02:31:39;;;;;;;11.30;8.80;;;3.10;96.80;;;;;;2104495;28;20047;-68
2022/03/01 02:32:40;;;;;;;12.90;9.43;;;3.20;96.30;;;;;;2101278;28;20028;-67
2022/03/01 02:33:41;;;;;;;14.60;9.23;;;3.30;96.00;;;;;;2104407;28;20044;-68
2022/03/01 02:34:41;;;;;;;12.73;9.70;;;3.30;95.70;;;;;;2105803;28;20032;-67
2022/03/01 02:35:42;;;;;;;12.05;9.00;;;3.40;95.20;;;;;;2102754;28;20016;-67
2022/03/01 02:36:43;;;;;;;10.57;8.55;;;3.40;95.20;;;;;;2105777;28;20017;-68
2022/03/01 02:37:44;;;;;;;11.52;9.52;;;3.40;94.80;;;;;;2103561;28;20023;-68
2022/03/01 02:38:45;;;;;;;12.32;9.20;;;3.50;94.20;;;;;;2100690;28;20047;-68
2022/03/01 02:39:45;;;;;;;10.65;9.02;;;3.60;93.70;;;;;;2104040;28;20020;-68
2022/03/01 02:40:46;;;;;;;11.95;8.93;;;3.60;93.40;;;;;;2101964;28;20051;-68
2022/03/01 02:41:47;;;;;;;12.52;8.98;;;3.60;93.30;;;;;;2104149;28;20020;-67
2022/03/01 02:42:48;;;;;;;12.27;8.85;;;3.70;93.40;;;;;;2105689;28;20016;-67
2022/03/01 02:43:48;;;;;;;9.90;8.52;;;3.70;92.90;;;;;;2100138;28;20016;-68
2022/03/01 02:44:49;;;;;;;14.02;8.90;;;3.80;92.40;;;;;;2104311;28;20035;-68
2022/03/01 02:45:50;;;;;;;10.38;8.27;;;3.80;91.80;;;;;;2101970;28;20020;-68
2022/03/01 02:46:50;;;;;;;12.27;8.52;;;3.80;91.60;;;;;;2105741;28;20067;-68
2022/03/01 02:47:51;;;;;;;11.75;8.95;;;3.90;91.50;;;;;;2098679;28;20028;-68
2022/03/01 02:48:52;;;;;;;13.45;9.27;;;3.90;91.30;;;;;;2098771;28;20083;-68
2022/03/01 02:49:52;;;;;;;13.02;7.97;;;4.00;91.20;;;;;;2106164;28;20027;-67
2022/03/01 02:50:53;;;;;;;10.68;8.52;;;4.00;90.70;;;;;;2101629;28;20024;-67
2022/03/01 02:51:53;;;;;;;14.15;9.38;;;4.00;90.50;;;;;;2103054;28;20020;-67
2022/03/01 02:52:54;;;;;;;11.65;9.40;;;4.00;90.50;;;;;;2104506;28;20047;-67
2022/03/01 02:53:55;;;;;;;10.20;8.48;;;4.10;90.50;;;;;;2101436;28;20051;-67
2022/03/01 02:54:55;;;;;;;11.05;8.20;;;4.10;90.10;;;;;;2106343;28;20031;-67
2022/03/01 02:55:56;;;;;;;10.43;8.35;;;4.10;89.80;;;;;;2103221;28;20027;-67
2022/03/01 02:56:59;;;;;;;12.88;9.35;;;4.10;89.30;;;;;;2103702;28;20089;-67
2022/03/01 02:57:59;;;;;;;11.90;8.30;;;4.10;88.70;;;;;;2104792;28;20360;-67
2022/03/01 02:59:00;;;;;;;12.65;9.20;;;4.10;89.60;;;;;;2103060;28;20028;-67
2022/03/01 03:00:01;;;;;;;10.05;8.13;;;4.20;89.40;;;;;;2102392;28;20060;-67
2022/03/01 03:01:01;;;;;;;11.88;8.45;;;4.20;88.10;;;;;;2103143;28;20491;-67
2022/03/01 03:02:04;;;;;;;10.80;9.05;;;4.20;87.50;;;;;;2103150;28;20032;-67
2022/03/01 03:03:05;;;;;;;12.20;8.65;;;4.20;88.10;;;;;;2101994;28;20042;-67
2022/03/01 03:04:05;;;;;;;10.52;8.35;;;4.30;87.60;;;;;;2107888;28;20050;-67
2022/03/01 03:05:06;;;;;;;12.45;8.85;;;4.30;87.70;;;;;;2103312;28;20024;-67
2022/03/01 03:06:07;;;;;;;10.38;8.43;;;4.30;88.40;;;;;;2104965;28;20032;-67
2022/03/01 03:07:08;;;;;;;11.75;8.77;;;4.30;88.90;;;;;;2106881;28;20028;-67
2022/03/01 03:08:08;;;;;;;11.68;9.43;;;4.30;88.90;;;;;;2103111;28;20016;-67
2022/03/01 03:09:09;;;;;;;10.85;8.57;;;4.30;88.50;;;;;;2105010;28;20032;-67
2022/03/01 03:10:09;;;;;;;10.50;8.82;;;4.30;88.60;;;;;;2102986;28;20056;-67
2022/03/01 03:11:10;;;;;;;11.70;8.60;;;4.30;88.40;;;;;;2105350;28;20043;-68
2022/03/01 03:12:11;;;;;;;12.75;9.15;;;4.30;89.00;;;;;;2104743;28;20042;-67
2022/03/01 03:13:11;;;;;;;11.23;8.98;;;4.30;89.30;;;;;;2102151;28;20472;-67
2022/03/01 03:14:12;;;;;;;11.32;9.15;;;4.20;89.50;;;;;;2103883;28;20039;-67
2022/03/01 03:15:13;;;;;;;12.18;8.82;;;4.20;89.40;;;;;;2105361;28;20711;-67
2022/03/01 03:16:13;;;;;;;10.55;8.02;;;4.20;88.90;;;;;;2104755;28;20039;-67
2022/03/01 03:17:14;;;;;;;12.10;8.82;;;4.20;89.00;;;;;;2102942;28;20028;-67
2022/03/01 03:18:14;;;;;;;10.15;8.70;;;4.20;89.10;;;;;;2098730;28;20063;-67
2022/03/01 03:19:15;;;;;;;12.40;8.70;;;4.20;89.00;;;;;;2103938;28;20028;-67
2022/03/01 03:20:16;;;;;;;14.13;9.98;;;4.20;88.90;;;;;;2104680;28;20023;-67
2022/03/01 03:21:16;;;;;;;12.75;8.70;;;4.20;89.10;;;;;;2104266;28;20123;-67
2022/03/01 03:22:17;;;;;;;12.57;8.90;;;4.10;89.20;;;;;;2107581;28;20027;-67
2022/03/01 03:23:18;;;;;;;11.32;8.32;;;4.10;89.10;;;;;;2105251;28;20116;-67
2022/03/01 03:24:19;;;;;;;12.07;8.93;;;4.10;89.00;;;;;;2102801;28;20494;-67
2022/03/01 03:25:20;;;;;;;10.35;7.63;;;4.10;88.80;;;;;;2107688;28;20371;-67
2022/03/01 03:26:20;;;;;;;10.30;8.25;;;4.10;88.60;;;;;;2103602;28;20032;-67
2022/03/01 03:27:21;;;;;;;11.15;8.90;;;4.10;88.60;;;;;;2101187;28;20037;-67
2022/03/01 03:28:21;;;;;;;12.10;9.45;;;4.10;88.40;;;;;;2104550;28;20421;-67
2022/03/01 03:29:22;;;;;;;12.10;9.07;;;4.10;88.30;;;;;;2100769;28;20024;-67
2022/03/01 03:30:22;;;;;;;14.07;8.82;;;4.00;88.30;;;;;;2099940;28;20036;-67
2022/03/01 03:31:23;;;;;;;12.38;9.32;;;4.00;88.70;;;;;;2105404;28;20434;-67
2022/03/01 03:32:24;;;;;;;10.00;8.38;;;4.00;89.70;;;;;;2103236;28;20136;-67
2022/03/01 03:33:24;;;;;;;9.65;8.65;;;4.00;90.20;;;;;;2107631;28;20372;-68
2022/03/01 03:34:25;;;;;;;10.82;8.27;;;4.00;90.60;;;;;;2102473;28;20641;-67
2022/03/01 03:35:27;;;;;;;12.68;9.27;;;4.00;90.90;;;;;;2102328;28;20476;-67
2022/03/01 03:36:28;;;;;;;11.15;9.05;;;4.00;91.10;;;;;;2107905;28;20514;-67
2022/03/01 03:37:29;;;;;;;11.90;9.50;;;3.90;91.20;;;;;;2103739;28;20371;-67
2022/03/01 03:38:29;;;;;;;14.43;9.80;;;3.90;91.40;;;;;;2105347;28;20031;-67
2022/03/01 03:39:30;;;;;;;10.68;8.82;;;3.90;91.50;;;;;;2105320;28;20027;-67
2022/03/01 03:40:30;;;;;;;9.80;8.80;;;3.90;91.50;;;;;;2102285;28;20739;-67
2022/03/01 03:41:31;;;;;;;12.05;9.25;;;3.90;91.50;;;;;;2106978;28;20054;-67
2022/03/01 03:42:32;;;;;;;10.07;8.63;;;3.90;91.40;;;;;;2101867;28;20033;-67
2022/03/01 03:43:33;;;;;;;12.38;9.35;;;3.90;91.40;;;;;;2104854;28;20028;-67
2022/03/01 03:44:33;;;;;;;10.27;8.85;;;3.90;91.70;;;;;;2105694;28;20815;-67
2022/03/01 03:45:34;;;;;;;11.82;8.93;;;3.90;92.00;;;;;;2103615;28;20020;-68
2022/03/01 03:46:35;;;;;;;13.43;9.57;;;3.90;92.20;;;;;;2104209;28;20574;-67
2022/03/01 03:47:36;;;;;;;10.25;8.80;;;3.80;92.20;;;;;;2103219;28;20109;-67
2022/03/01 03:48:36;;;;;;;12.68;8.63;;;3.80;92.20;;;;;;2099889;28;20062;-67
2022/03/01 03:49:37;;;;;;;12.18;9.07;;;3.80;92.40;;;;;;2105047;28;20020;-67
2022/03/01 03:50:38;;;;;;;11.38;8.93;;;3.80;92.30;;;;;;2104201;28;20028;-67
2022/03/01 03:51:38;;;;;;;12.32;8.95;;;3.80;92.10;;;;;;2107454;28;20478;-67
2022/03/01 03:52:40;;;;;;;11.30;8.93;;;3.80;91.70;;;;;;2102261;28;20016;-67
2022/03/01 03:53:41;;;;;;;13.02;9.57;;;3.80;91.40;;;;;;2104072;28;20500;-67
2022/03/01 03:54:42;;;;;;;12.48;9.23;;;3.80;91.30;;;;;;2109895;28;20028;-67
2022/03/01 03:55:42;;;;;;;12.23;8.93;;;3.80;91.50;;;;;;2102247;28;20012;-67
2022/03/01 03:56:43;;;;;;;9.70;7.97;;;3.80;91.50;;;;;;2104217;28;20073;-67
2022/03/01 03:57:44;;;;;;;10.73;8.15;;;3.80;91.40;;;;;;2106465;28;20483;-67
2022/03/01 03:58:45;;;;;;;11.07;8.10;;;3.80;91.20;;;;;;2106351;28;20023;-67
2022/03/01 03:59:45;;;;;;;11.73;8.63;;;3.80;91.20;;;;;;2107226;28;20054;-67
2022/03/01 04:00:46;;;;;;;12.80;9.15;;;3.80;91.30;;;;;;2106144;28;20016;-67
2022/03/01 04:01:47;;;;;;;11.45;8.85;;;3.80;91.50;;;;;;2104950;28;20062;-67
2022/03/01 04:02:51;;;;;;;10.98;8.75;;;3.80;92.10;;;;;;2104506;28;20024;-67
2022/03/01 04:03:51;;;;;;;11.40;9.45;;;3.80;92.50;;;;;;2104897;28;20039;-67
2022/03/01 04:04:52;;;;;;;11.35;9.20;;;3.80;92.70;;;;;;2101629;28;20452;-67
2022/03/01 04:05:52;;;;;;;9.68;8.38;;;3.80;92.70;;;;;;2104550;28;20067;-67
2022/03/01 04:06:53;;;;;;;10.13;8.95;;;3.70;92.80;;;;;;2102125;28;20047;-67
2022/03/01 04:07:54;;;;;;;12.27;9.43;;;3.80;93.00;;;;;;2105489;28;20056;-67
2022/03/01 04:08:54;;;;;;;11.65;8.88;;;3.70;93.10;;;;;;2103069;28;20020;-67
2022/03/01 04:09:55;;;;;;;10.55;9.02;;;3.70;93.40;;;;;;2104592;28;20051;-67
2022/03/01 04:10:58;;;;;;;10.98;9.38;;;3.70;93.40;;;;;;2105622;28;20028;-67
2022/03/01 04:11:59;;;;;;;14.82;9.77;;;3.70;93.70;;;;;;2104896;28;20962;-67
2022/03/01 04:12:59;;;;;;;12.55;10.07;;;3.70;94.00;;;;;;2106442;28;20027;-67
2022/03/01 04:14:01;;;;;;;12.38;9.57;;;3.70;94.10;;;;;;2104808;28;20036;-67
2022/03/01 04:15:03;;;;;;;13.18;9.10;;;3.70;94.20;;;;;;2102960;28;20933;-67
2022/03/01 04:16:04;;;;;;;12.23;9.20;;;3.70;94.30;;;;;;2106098;28;20042;-67
2022/03/01 04:17:04;;;;;;;13.13;9.57;;;3.70;94.50;;;;;;2104320;28;20059;-67
2022/03/01 04:18:05;;;;;;;12.10;9.73;;;3.70;94.60;;;;;;2104002;28;20379;-67
2022/03/01 04:19:06;;;;;;;10.85;9.02;;;3.70;94.70;;;;;;2105230;28;20076;-67
2022/03/01 04:20:07;;;;;;;11.88;9.65;;;3.70;94.80;;;;;;2103864;28;20032;-67
2022/03/01 04:21:08;;;;;;;13.00;10.05;;;3.70;94.90;;;;;;2104897;28;20028;-67
2022/03/01 04:22:08;;;;;;;13.30;8.93;;;3.70;95.00;;;;;;2102313;28;20044;-67
2022/03/01 04:23:09;;;;;;;11.93;9.23;;;3.70;95.10;;;;;;2102415;28;20031;-67
2022/03/01 04:24:09;;;;;;;10.95;9.65;;;3.70;95.00;;;;;;2106252;28;20024;-67
2022/03/01 04:25:10;;;;;;;12.23;9.63;;;3.70;95.00;;;;;;2103112;28;20810;-67
2022/03/01 04:26:11;;;;;;;11.05;8.93;;;3.60;95.00;;;;;;2104048;28;20044;-67
2022/03/01 04:27:12;;;;;;;10.45;9.25;;;3.60;95.50;;;;;;2104846;28;20028;-67
2022/03/01 04:28:13;;;;;;;11.48;9.68;;;3.60;95.50;;;;;;2104775;28;20024;-67
2022/03/01 04:29:13;;;;;;;11.73;9.23;;;3.60;95.60;;;;;;2104793;28;20061;-67
2022/03/01 04:30:15;;;;;;;14.13;10.25;;;3.60;95.70;;;;;;2107878;28;20031;-67
2022/03/01 04:31:16;;;;;;;13.68;10.23;;;3.60;95.70;;;;;;2103547;28;20016;-67
2022/03/01 04:32:16;;;;;;;10.82;9.73;;;3.60;95.60;;;;;;2102871;28;20100;-67
2022/03/01 04:33:17;;;;;;;10.88;9.30;;;3.50;95.50;;;;;;2104660;28;20032;-67
2022/03/01 04:34:17;;;;;;;15.10;9.82;;;3.50;95.60;;;;;;2104198;28;20505;-67
2022/03/01 04:35:18;;;;;;;16.42;10.13;;;3.50;95.90;;;;;;2106113;28;20028;-67
2022/03/01 04:36:18;;;;;;;11.85;9.75;;;3.50;96.10;;;;;;2105809;28;20111;-67
2022/03/01 04:37:19;;;;;;;14.38;9.18;;;3.50;96.20;;;;;;2104335;28;20048;-67
2022/03/01 04:38:20;;;;;;;14.02;10.02;;;3.50;96.10;;;;;;2107696;28;20574;-67
2022/03/01 04:39:21;;;;;;;12.90;9.95;;;3.50;96.10;;;;;;2102384;28;20075;-67
2022/03/01 04:40:22;;;;;;;11.88;10.38;;;3.50;96.20;;;;;;2101111;28;20032;-67
2022/03/01 04:41:23;;;;;;;11.85;9.20;;;3.50;96.40;;;;;;2108281;28;20028;-67
2022/03/01 04:42:23;;;;;;;12.10;9.20;;;3.50;96.60;;;;;;2103838;28;20043;-67
2022/03/01 04:43:24;;;;;;;11.75;8.90;;;3.50;96.60;;;;;;2104621;28;20115;-67
2022/03/01 04:44:25;;;;;;;11.90;9.60;;;3.50;96.70;;;;;;2105155;28;20020;-67
2022/03/01 04:45:25;;;;;;;12.00;9.35;;;3.50;96.70;;;;;;2101081;28;20027;-67
2022/03/01 04:46:26;;;;;;;11.93;10.15;;;3.50;96.80;;;;;;2107414;28;20028;-67
2022/03/01 04:47:26;;;;;;;12.00;10.13;;;3.40;96.80;;;;;;2101739;28;20025;-67
2022/03/01 04:48:27;;;;;;;13.27;9.85;;;3.40;96.80;;;;;;2099939;28;20389;-67
2022/03/01 04:49:28;;;;;;;10.70;9.15;;;3.40;96.90;;;;;;2106645;28;20030;-67
2022/03/01 04:50:29;;;;;;;12.68;9.70;;;3.40;97.00;;;;;;2103700;28;20077;-67
2022/03/01 04:51:30;;;;;;;10.80;9.63;;;3.40;97.30;;;;;;2103001;28;20102;-67
2022/03/01 04:52:30;;;;;;;12.52;9.25;;;3.40;97.60;;;;;;2103118;28;20023;-67
2022/03/01 04:53:31;;;;;;;10.98;9.40;;;3.40;97.60;;;;;;2101683;28;20016;-67
2022/03/01 04:54:32;;;;;;;10.77;8.98;;;3.40;97.90;;;;;;2105611;28;20739;-67
2022/03/01 04:55:34;;;;;;;12.57;9.77;;;3.40;98.10;;;;;;2099980;28;20036;-67
2022/03/01 04:56:34;;;;;;;10.85;9.38;;;3.40;98.20;;;;;;2102441;28;20032;-67
2022/03/01 04:57:35;;;;;;;12.55;10.05;;;3.30;98.30;;;;;;2107547;28;20054;-67
2022/03/01 04:58:36;;;;;;;15.02;9.80;;;3.30;98.50;;;;;;2103580;28;20043;-67
2022/03/01 04:59:37;;;;;;;13.48;10.32;;;3.30;98.60;;;;;;2107787;28;20461;-67
2022/03/01 05:00:37;;;;;;;14.88;10.05;;;3.30;98.70;;;;;;2102102;28;20028;-67
2022/03/01 05:01:38;;;;;;;12.25;9.82;;;3.30;99.00;;;;;;2101622;28;20032;-67
2022/03/01 05:02:41;;;;;;;12.77;9.93;;;3.30;99.40;;;;;;2107006;28;20028;-67
2022/03/01 05:03:42;;;;;;;10.93;9.82;;;3.30;99.30;;;;;;2100799;28;20465;-67
2022/03/01 05:04:42;;;;;;;12.32;9.80;;;3.20;99.20;;;;;;2103109;28;20016;-67
2022/03/01 05:05:43;;;;;;;11.98;9.40;;;3.20;99.20;;;;;;2104025;28;20020;-67
2022/03/01 05:06:44;;;;;;;11.70;10.32;;;3.20;99.30;;;;;;2103042;28;20366;-67
2022/03/01 05:07:47;;;;;;;11.30;9.23;;;3.20;99.60;;;;;;2104941;28;20439;-67
2022/03/01 05:08:48;;;;;;;15.05;10.40;;;3.20;99.50;;;;;;2102812;28;20020;-67
2022/03/01 05:09:48;;;;;;;11.52;9.55;;;3.20;99.60;;;;;;2101867;28;20115;-67
2022/03/01 05:10:49;;;;;;;10.95;9.50;;;3.20;99.40;;;;;;2105655;28;20035;-67
2022/03/01 05:11:50;;;;;;;15.95;9.35;;;3.20;99.40;;;;;;2103634;28;20055;-67
2022/03/01 05:12:56;;;;;;;12.45;9.80;;;3.20;99.30;;;;;;2104438;28;21060;-68
2022/03/01 05:13:57;;;;;;;12.63;10.10;;;3.20;99.60;;;;;;2104045;28;20074;-67
2022/03/01 05:14:57;;;;;;;11.35;9.60;;;3.10;99.70;;;;;;2102987;28;20028;-67
2022/03/01 05:15:58;;;;;;;12.57;10.00;;;3.10;99.50;;;;;;2105602;28;20058;-67
2022/03/01 05:16:58;;;;;;;11.50;9.80;;;3.10;99.70;;;;;;2107134;28;20030;-67